sensor_id;sensor_type;location;lat;lon;timestamp;temperature;humidity
67093;SHT31;54011;50.772;7.730;2023-08-17T00:08:03;21.97;82.96
67093;SHT31;54011;50.772;7.730;2023-08-17T00:10:30;22.03;82.88
67093;SHT31;54011;50.772;7.730;2023-08-17T00:43:56;21.46;83.68
67093;SHT31;54011;50.772;7.730;2023-08-17T01:43:55;21.31;83.56
67093;SHT31;54011;50.772;7.730;2023-08-17T03:13:53;21.31;84.18
67093;SHT31;54011;50.772;7.730;2023-08-17T03:20:48;21.25;84.29
67093;SHT31;54011;50.772;7.730;2023-08-17T03:28:01;21.28;84.39
67093;SHT31;54011;50.772;7.730;2023-08-17T03:57:46;21.32;83.63
67093;SHT31;54011;50.772;7.730;2023-08-17T04:15:39;20.85;84.56
67093;SHT31;54011;50.772;7.730;2023-08-17T04:59:04;20.73;83.83
67093;SHT31;54011;50.772;7.730;2023-08-17T05:11:32;20.61;84.08
67093;SHT31;54011;50.772;7.730;2023-08-17T05:18:16;20.91;82.72
67093;SHT31;54011;50.772;7.730;2023-08-17T05:36:55;21.21;82.55
67093;SHT31;54011;50.772;7.730;2023-08-17T06:14:01;21.49;82.55
67093;SHT31;54011;50.772;7.730;2023-08-17T06:16:48;21.56;82.00
67093;SHT31;54011;50.772;7.730;2023-08-17T06:41:47;22.27;80.28
67093;SHT31;54011;50.772;7.730;2023-08-17T06:58:21;22.35;80.23
67093;SHT31;54011;50.772;7.730;2023-08-17T07:00:47;22.28;80.74
67093;SHT31;54011;50.772;7.730;2023-08-17T07:03:12;22.21;80.91
67093;SHT31;54011;50.772;7.730;2023-08-17T07:05:38;22.11;81.77
67093;SHT31;54011;50.772;7.730;2023-08-17T07:08:03;22.07;81.22
67093;SHT31;54011;50.772;7.730;2023-08-17T07:10:29;22.28;80.89
67093;SHT31;54011;50.772;7.730;2023-08-17T07:12:55;22.24;80.87
67093;SHT31;54011;50.772;7.730;2023-08-17T07:15:20;22.20;81.24
67093;SHT31;54011;50.772;7.730;2023-08-17T07:17:46;22.03;81.44
67093;SHT31;54011;50.772;7.730;2023-08-17T07:20:12;22.14;81.11
67093;SHT31;54011;50.772;7.730;2023-08-17T07:22:37;22.35;80.22
67093;SHT31;54011;50.772;7.730;2023-08-17T07:25:03;22.41;80.59
67093;SHT31;54011;50.772;7.730;2023-08-17T07:27:29;22.35;80.88
67093;SHT31;54011;50.772;7.730;2023-08-17T07:29:55;22.52;80.69
67093;SHT31;54011;50.772;7.730;2023-08-17T07:32:21;22.37;81.28
67093;SHT31;54011;50.772;7.730;2023-08-17T07:34:47;22.47;80.60
67093;SHT31;54011;50.772;7.730;2023-08-17T07:37:12;22.38;80.74
67093;SHT31;54011;50.772;7.730;2023-08-17T07:39:38;22.49;80.56
67093;SHT31;54011;50.772;7.730;2023-08-17T07:42:04;22.49;80.67
67093;SHT31;54011;50.772;7.730;2023-08-17T07:44:29;22.73;81.01
67093;SHT31;54011;50.772;7.730;2023-08-17T07:46:57;22.77;80.12
67093;SHT31;54011;50.772;7.730;2023-08-17T07:49:23;23.00;80.32
67093;SHT31;54011;50.772;7.730;2023-08-17T07:51:49;23.21;79.41
67093;SHT31;54011;50.772;7.730;2023-08-17T07:54:15;22.96;78.55
67093;SHT31;54011;50.772;7.730;2023-08-17T07:56:41;23.13;80.27
67093;SHT31;54011;50.772;7.730;2023-08-17T07:59:06;23.27;78.93
67093;SHT31;54011;50.772;7.730;2023-08-17T08:01:31;22.90;79.00
67093;SHT31;54011;50.772;7.730;2023-08-17T08:03:57;23.19;77.71
67093;SHT31;54011;50.772;7.730;2023-08-17T08:06:23;23.26;78.71
67093;SHT31;54011;50.772;7.730;2023-08-17T08:08:48;23.03;79.59
67093;SHT31;54011;50.772;7.730;2023-08-17T08:11:14;22.86;79.01
67093;SHT31;54011;50.772;7.730;2023-08-17T08:13:40;23.03;80.04
67093;SHT31;54011;50.772;7.730;2023-08-17T08:16:05;22.83;79.70
67093;SHT31;54011;50.772;7.730;2023-08-17T08:18:31;23.24;78.85
67093;SHT31;54011;50.772;7.730;2023-08-17T08:20:56;22.95;79.17
67093;SHT31;54011;50.772;7.730;2023-08-17T08:23:22;22.63;79.87
67093;SHT31;54011;50.772;7.730;2023-08-17T08:25:48;23.16;78.13
67093;SHT31;54011;50.772;7.730;2023-08-17T08:28:13;23.31;78.54
67093;SHT31;54011;50.772;7.730;2023-08-17T08:30:39;23.13;79.53
67093;SHT31;54011;50.772;7.730;2023-08-17T08:33:04;23.26;78.07
67093;SHT31;54011;50.772;7.730;2023-08-17T08:35:30;22.99;78.53
67093;SHT31;54011;50.772;7.730;2023-08-17T08:37:55;23.23;77.89
67093;SHT31;54011;50.772;7.730;2023-08-17T08:40:27;22.98;78.80
67093;SHT31;54011;50.772;7.730;2023-08-17T08:42:54;23.40;78.35
67093;SHT31;54011;50.772;7.730;2023-08-17T08:45:21;22.99;79.24
67093;SHT31;54011;50.772;7.730;2023-08-17T08:47:48;22.75;78.92
67093;SHT31;54011;50.772;7.730;2023-08-17T08:50:18;23.03;79.06
67093;SHT31;54011;50.772;7.730;2023-08-17T08:53:00;23.14;78.41
67093;SHT31;54011;50.772;7.730;2023-08-17T08:55:31;23.50;78.27
67093;SHT31;54011;50.772;7.730;2023-08-17T08:58:00;23.55;77.88
67093;SHT31;54011;50.772;7.730;2023-08-17T09:00:26;23.50;78.63
67093;SHT31;54011;50.772;7.730;2023-08-17T09:02:52;23.50;78.17
67093;SHT31;54011;50.772;7.730;2023-08-17T09:05:18;23.79;76.49
67093;SHT31;54011;50.772;7.730;2023-08-17T09:07:50;23.36;78.08
67093;SHT31;54011;50.772;7.730;2023-08-17T09:10:16;23.09;78.34
67093;SHT31;54011;50.772;7.730;2023-08-17T09:12:45;23.46;77.58
67093;SHT31;54011;50.772;7.730;2023-08-17T09:15:11;23.86;76.49
67093;SHT31;54011;50.772;7.730;2023-08-17T09:17:36;23.84;77.69
67093;SHT31;54011;50.772;7.730;2023-08-17T09:20:02;23.34;77.17
67093;SHT31;54011;50.772;7.730;2023-08-17T09:22:38;23.75;76.04
67093;SHT31;54011;50.772;7.730;2023-08-17T09:25:05;24.13;75.73
67093;SHT31;54011;50.772;7.730;2023-08-17T09:27:31;24.44;74.07
67093;SHT31;54011;50.772;7.730;2023-08-17T09:30:09;24.55;75.16
67093;SHT31;54011;50.772;7.730;2023-08-17T09:32:34;25.06;73.75
67093;SHT31;54011;50.772;7.730;2023-08-17T09:35:04;25.24;73.12
67093;SHT31;54011;50.772;7.730;2023-08-17T09:37:31;24.73;74.06
67093;SHT31;54011;50.772;7.730;2023-08-17T09:39:56;25.04;72.26
67093;SHT31;54011;50.772;7.730;2023-08-17T09:42:22;25.86;70.63
67093;SHT31;54011;50.772;7.730;2023-08-17T09:44:51;25.61;71.91
67093;SHT31;54011;50.772;7.730;2023-08-17T09:47:19;25.73;71.88
67093;SHT31;54011;50.772;7.730;2023-08-17T09:49:52;26.17;70.22
67093;SHT31;54011;50.772;7.730;2023-08-17T09:52:21;26.36;70.66
67093;SHT31;54011;50.772;7.730;2023-08-17T09:54:47;26.14;70.62
67093;SHT31;54011;50.772;7.730;2023-08-17T09:57:13;26.20;71.15
67093;SHT31;54011;50.772;7.730;2023-08-17T09:59:39;26.13;71.50
67093;SHT31;54011;50.772;7.730;2023-08-17T10:02:19;25.43;71.70
67093;SHT31;54011;50.772;7.730;2023-08-17T10:04:52;26.10;69.39
67093;SHT31;54011;50.772;7.730;2023-08-17T10:07:20;25.76;71.43
67093;SHT31;54011;50.772;7.730;2023-08-17T10:09:52;25.86;71.02
67093;SHT31;54011;50.772;7.730;2023-08-17T10:12:22;26.01;70.11
67093;SHT31;54011;50.772;7.730;2023-08-17T10:14:51;26.01;70.12
67093;SHT31;54011;50.772;7.730;2023-08-17T10:17:24;25.52;72.31
67093;SHT31;54011;50.772;7.730;2023-08-17T10:19:54;26.03;70.50
67093;SHT31;54011;50.772;7.730;2023-08-17T10:22:43;25.79;72.54
67093;SHT31;54011;50.772;7.730;2023-08-17T10:25:11;25.89;71.14
67093;SHT31;54011;50.772;7.730;2023-08-17T10:27:42;26.52;69.66
67093;SHT31;54011;50.772;7.730;2023-08-17T10:30:10;26.14;71.07
67093;SHT31;54011;50.772;7.730;2023-08-17T10:32:35;26.37;71.80
67093;SHT31;54011;50.772;7.730;2023-08-17T10:35:02;26.74;69.48
67093;SHT31;54011;50.772;7.730;2023-08-17T10:37:29;27.03;69.48
67093;SHT31;54011;50.772;7.730;2023-08-17T10:39:54;26.48;68.15
67093;SHT31;54011;50.772;7.730;2023-08-17T10:42:33;27.20;67.34
67093;SHT31;54011;50.772;7.730;2023-08-17T10:47:47;27.32;67.99
67093;SHT31;54011;50.772;7.730;2023-08-17T10:50:23;27.25;69.06
67093;SHT31;54011;50.772;7.730;2023-08-17T10:52:50;26.92;67.10
67093;SHT31;54011;50.772;7.730;2023-08-17T10:55:16;27.84;65.49
67093;SHT31;54011;50.772;7.730;2023-08-17T10:57:44;28.25;66.14
67093;SHT31;54011;50.772;7.730;2023-08-17T11:00:19;28.39;63.92
67093;SHT31;54011;50.772;7.730;2023-08-17T11:03:00;27.71;67.09
67093;SHT31;54011;50.772;7.730;2023-08-17T11:05:40;27.71;65.09
67093;SHT31;54011;50.772;7.730;2023-08-17T11:08:07;27.61;65.39
67093;SHT31;54011;50.772;7.730;2023-08-17T11:10:35;27.56;66.05
67093;SHT31;54011;50.772;7.730;2023-08-17T11:13:03;27.86;66.33
67093;SHT31;54011;50.772;7.730;2023-08-17T11:18:09;27.54;65.50
67093;SHT31;54011;50.772;7.730;2023-08-17T11:20:36;29.02;63.18
67093;SHT31;54011;50.772;7.730;2023-08-17T11:23:04;29.41;61.29
67093;SHT31;54011;50.772;7.730;2023-08-17T11:25:32;29.84;59.53
67093;SHT31;54011;50.772;7.730;2023-08-17T11:28:00;30.17;59.79
67093;SHT31;54011;50.772;7.730;2023-08-17T11:30:26;29.68;61.51
67093;SHT31;54011;50.772;7.730;2023-08-17T11:32:54;28.42;64.34
67093;SHT31;54011;50.772;7.730;2023-08-17T11:35:20;27.94;65.41
67093;SHT31;54011;50.772;7.730;2023-08-17T11:37:47;27.60;64.41
67093;SHT31;54011;50.772;7.730;2023-08-17T11:40:16;28.22;63.50
67093;SHT31;54011;50.772;7.730;2023-08-17T11:42:43;28.56;62.27
67093;SHT31;54011;50.772;7.730;2023-08-17T11:45:09;29.10;62.61
67093;SHT31;54011;50.772;7.730;2023-08-17T11:47:38;27.80;63.85
67093;SHT31;54011;50.772;7.730;2023-08-17T11:50:05;29.55;61.51
67093;SHT31;54011;50.772;7.730;2023-08-17T11:52:31;29.62;61.96
67093;SHT31;54011;50.772;7.730;2023-08-17T11:55:06;29.93;61.00
67093;SHT31;54011;50.772;7.730;2023-08-17T11:57:34;29.31;63.02
67093;SHT31;54011;50.772;7.730;2023-08-17T12:00:00;29.93;60.68
67093;SHT31;54011;50.772;7.730;2023-08-17T12:02:27;30.01;60.98
67093;SHT31;54011;50.772;7.730;2023-08-17T12:04:54;28.99;62.08
67093;SHT31;54011;50.772;7.730;2023-08-17T12:07:21;30.35;60.32
67093;SHT31;54011;50.772;7.730;2023-08-17T12:09:48;30.36;59.02
67093;SHT31;54011;50.772;7.730;2023-08-17T12:12:17;29.16;61.45
67093;SHT31;54011;50.772;7.730;2023-08-17T12:14:43;30.39;58.90
67093;SHT31;54011;50.772;7.730;2023-08-17T12:17:14;30.81;57.16
67093;SHT31;54011;50.772;7.730;2023-08-17T12:19:40;30.40;58.00
67093;SHT31;54011;50.772;7.730;2023-08-17T12:22:06;30.19;59.63
67093;SHT31;54011;50.772;7.730;2023-08-17T12:24:32;31.38;58.20
67093;SHT31;54011;50.772;7.730;2023-08-17T12:26:57;31.14;57.89
67093;SHT31;54011;50.772;7.730;2023-08-17T12:29:24;30.06;59.43
67093;SHT31;54011;50.772;7.730;2023-08-17T12:31:51;30.41;59.91
67093;SHT31;54011;50.772;7.730;2023-08-17T12:34:17;31.86;58.16
67093;SHT31;54011;50.772;7.730;2023-08-17T12:36:43;30.64;59.45
67093;SHT31;54011;50.772;7.730;2023-08-17T12:39:09;30.50;58.59
67093;SHT31;54011;50.772;7.730;2023-08-17T12:41:35;31.49;56.46
67093;SHT31;54011;50.772;7.730;2023-08-17T12:44:00;32.24;55.37
67093;SHT31;54011;50.772;7.730;2023-08-17T12:46:27;31.94;55.80
67093;SHT31;54011;50.772;7.730;2023-08-17T12:48:52;30.92;57.20
67093;SHT31;54011;50.772;7.730;2023-08-17T12:51:18;31.38;57.03
67093;SHT31;54011;50.772;7.730;2023-08-17T12:53:44;30.74;59.96
67093;SHT31;54011;50.772;7.730;2023-08-17T12:56:09;29.67;60.42
67093;SHT31;54011;50.772;7.730;2023-08-17T12:58:35;30.43;59.57
67093;SHT31;54011;50.772;7.730;2023-08-17T13:01:02;30.36;59.10
67093;SHT31;54011;50.772;7.730;2023-08-17T13:03:27;30.73;58.62
67093;SHT31;54011;50.772;7.730;2023-08-17T13:05:53;30.74;58.12
67093;SHT31;54011;50.772;7.730;2023-08-17T13:08:19;31.31;56.24
67093;SHT31;54011;50.772;7.730;2023-08-17T13:10:45;31.15;57.52
67093;SHT31;54011;50.772;7.730;2023-08-17T13:13:10;32.75;55.25
67093;SHT31;54011;50.772;7.730;2023-08-17T13:15:36;32.31;56.20
67093;SHT31;54011;50.772;7.730;2023-08-17T13:18:02;31.87;56.98
67093;SHT31;54011;50.772;7.730;2023-08-17T13:20:28;31.56;58.58
67093;SHT31;54011;50.772;7.730;2023-08-17T13:22:53;30.20;61.34
67093;SHT31;54011;50.772;7.730;2023-08-17T13:25:19;29.65;61.40
67093;SHT31;54011;50.772;7.730;2023-08-17T13:27:44;31.42;56.18
67093;SHT31;54011;50.772;7.730;2023-08-17T13:30:10;32.75;55.83
67093;SHT31;54011;50.772;7.730;2023-08-17T13:32:36;31.04;57.78
67093;SHT31;54011;50.772;7.730;2023-08-17T13:35:02;30.46;57.43
67093;SHT31;54011;50.772;7.730;2023-08-17T13:37:28;30.50;58.82
67093;SHT31;54011;50.772;7.730;2023-08-17T13:39:54;31.63;56.49
67093;SHT31;54011;50.772;7.730;2023-08-17T13:42:20;31.29;56.06
67093;SHT31;54011;50.772;7.730;2023-08-17T13:44:45;32.19;55.45
67093;SHT31;54011;50.772;7.730;2023-08-17T13:47:12;32.28;55.53
67093;SHT31;54011;50.772;7.730;2023-08-17T13:49:37;32.27;56.09
67093;SHT31;54011;50.772;7.730;2023-08-17T13:52:03;32.91;54.83
67093;SHT31;54011;50.772;7.730;2023-08-17T13:54:29;32.28;54.93
67093;SHT31;54011;50.772;7.730;2023-08-17T13:56:55;32.48;54.68
67093;SHT31;54011;50.772;7.730;2023-08-17T13:59:20;31.46;56.89
67093;SHT31;54011;50.772;7.730;2023-08-17T14:01:46;30.26;59.49
67093;SHT31;54011;50.772;7.730;2023-08-17T14:04:11;31.70;56.69
67093;SHT31;54011;50.772;7.730;2023-08-17T14:06:38;30.98;58.89
67093;SHT31;54011;50.772;7.730;2023-08-17T14:09:04;30.32;59.08
67093;SHT31;54011;50.772;7.730;2023-08-17T14:11:30;31.72;58.17
67093;SHT31;54011;50.772;7.730;2023-08-17T14:13:58;32.48;56.86
67093;SHT31;54011;50.772;7.730;2023-08-17T14:16:24;34.61;52.56
67093;SHT31;54011;50.772;7.730;2023-08-17T14:18:49;32.43;54.46
67093;SHT31;54011;50.772;7.730;2023-08-17T14:21:15;31.62;57.92
67093;SHT31;54011;50.772;7.730;2023-08-17T14:23:40;31.22;57.64
67093;SHT31;54011;50.772;7.730;2023-08-17T14:26:07;31.97;57.28
67093;SHT31;54011;50.772;7.730;2023-08-17T14:28:32;31.29;57.00
67093;SHT31;54011;50.772;7.730;2023-08-17T14:30:57;31.22;57.98
67093;SHT31;54011;50.772;7.730;2023-08-17T14:33:23;33.22;55.53
67093;SHT31;54011;50.772;7.730;2023-08-17T14:35:49;33.42;53.84
67093;SHT31;54011;50.772;7.730;2023-08-17T14:38:15;33.93;53.39
67093;SHT31;54011;50.772;7.730;2023-08-17T14:40:45;32.31;54.83
67093;SHT31;54011;50.772;7.730;2023-08-17T14:43:12;31.90;55.26
67093;SHT31;54011;50.772;7.730;2023-08-17T14:45:43;31.82;57.04
67093;SHT31;54011;50.772;7.730;2023-08-17T14:48:09;31.26;56.97
67093;SHT31;54011;50.772;7.730;2023-08-17T14:50:35;32.37;56.83
67093;SHT31;54011;50.772;7.730;2023-08-17T14:53:02;33.25;55.39
67093;SHT31;54011;50.772;7.730;2023-08-17T14:55:30;33.80;52.46
67093;SHT31;54011;50.772;7.730;2023-08-17T14:57:56;34.02;54.72
67093;SHT31;54011;50.772;7.730;2023-08-17T15:00:23;34.61;50.05
67093;SHT31;54011;50.772;7.730;2023-08-17T15:02:48;34.45;52.03
67093;SHT31;54011;50.772;7.730;2023-08-17T15:05:15;33.42;51.96
67093;SHT31;54011;50.772;7.730;2023-08-17T15:07:41;34.98;50.07
67093;SHT31;54011;50.772;7.730;2023-08-17T15:10:07;34.86;52.22
67093;SHT31;54011;50.772;7.730;2023-08-17T15:12:32;34.53;53.13
67093;SHT31;54011;50.772;7.730;2023-08-17T15:14:58;35.53;50.04
67093;SHT31;54011;50.772;7.730;2023-08-17T15:17:25;35.48;50.08
67093;SHT31;54011;50.772;7.730;2023-08-17T15:19:50;33.43;51.34
67093;SHT31;54011;50.772;7.730;2023-08-17T15:22:16;34.04;51.95
67093;SHT31;54011;50.772;7.730;2023-08-17T15:24:42;33.32;51.79
67093;SHT31;54011;50.772;7.730;2023-08-17T15:27:09;34.53;50.86
67093;SHT31;54011;50.772;7.730;2023-08-17T15:29:34;34.01;52.35
67093;SHT31;54011;50.772;7.730;2023-08-17T15:32:00;31.42;56.60
67093;SHT31;54011;50.772;7.730;2023-08-17T15:34:26;31.59;55.92
67093;SHT31;54011;50.772;7.730;2023-08-17T15:36:51;32.58;54.08
67093;SHT31;54011;50.772;7.730;2023-08-17T15:39:17;33.42;52.18
67093;SHT31;54011;50.772;7.730;2023-08-17T15:41:43;32.38;53.49
67093;SHT31;54011;50.772;7.730;2023-08-17T15:44:08;33.11;53.63
67093;SHT31;54011;50.772;7.730;2023-08-17T15:46:34;32.84;54.10
67093;SHT31;54011;50.772;7.730;2023-08-17T15:48:59;33.11;53.06
67093;SHT31;54011;50.772;7.730;2023-08-17T15:51:25;33.98;51.71
67093;SHT31;54011;50.772;7.730;2023-08-17T15:53:56;33.70;51.85
67093;SHT31;54011;50.772;7.730;2023-08-17T15:56:21;33.08;52.92
67093;SHT31;54011;50.772;7.730;2023-08-17T15:58:47;33.25;51.99
67093;SHT31;54011;50.772;7.730;2023-08-17T16:01:12;33.84;52.41
67093;SHT31;54011;50.772;7.730;2023-08-17T16:03:40;34.89;50.71
67093;SHT31;54011;50.772;7.730;2023-08-17T16:06:06;34.27;51.50
67093;SHT31;54011;50.772;7.730;2023-08-17T16:08:32;34.56;50.63
67093;SHT31;54011;50.772;7.730;2023-08-17T16:10:57;33.05;52.86
67093;SHT31;54011;50.772;7.730;2023-08-17T16:13:23;34.27;53.08
67093;SHT31;54011;50.772;7.730;2023-08-17T16:15:48;34.63;51.46
67093;SHT31;54011;50.772;7.730;2023-08-17T16:18:14;34.34;51.91
67093;SHT31;54011;50.772;7.730;2023-08-17T16:20:39;33.59;52.64
67093;SHT31;54011;50.772;7.730;2023-08-17T16:23:05;34.88;50.84
67093;SHT31;54011;50.772;7.730;2023-08-17T16:25:31;33.86;53.04
67093;SHT31;54011;50.772;7.730;2023-08-17T16:27:59;33.39;53.71
67093;SHT31;54011;50.772;7.730;2023-08-17T16:30:25;32.98;53.84
67093;SHT31;54011;50.772;7.730;2023-08-17T16:32:50;32.94;54.21
67093;SHT31;54011;50.772;7.730;2023-08-17T16:35:16;31.89;56.20
67093;SHT31;54011;50.772;7.730;2023-08-17T16:37:41;32.12;56.73
67093;SHT31;54011;50.772;7.730;2023-08-17T16:40:07;31.29;58.11
67093;SHT31;54011;50.772;7.730;2023-08-17T16:42:33;30.12;59.92
67093;SHT31;54011;50.772;7.730;2023-08-17T16:44:59;30.88;59.35
67093;SHT31;54011;50.772;7.730;2023-08-17T16:47:24;30.04;60.34
67093;SHT31;54011;50.772;7.730;2023-08-17T16:49:52;29.99;61.02
67093;SHT31;54011;50.772;7.730;2023-08-17T16:52:19;30.35;60.70
67093;SHT31;54011;50.772;7.730;2023-08-17T16:54:44;29.89;60.85
67093;SHT31;54011;50.772;7.730;2023-08-17T16:57:10;29.54;62.82
67093;SHT31;54011;50.772;7.730;2023-08-17T16:59:37;29.90;60.87
67093;SHT31;54011;50.772;7.730;2023-08-17T17:02:02;29.92;61.22
67093;SHT31;54011;50.772;7.730;2023-08-17T17:04:28;29.76;61.06
67093;SHT31;54011;50.772;7.730;2023-08-17T17:06:54;29.92;60.97
67093;SHT31;54011;50.772;7.730;2023-08-17T17:09:19;29.85;61.64
67093;SHT31;54011;50.772;7.730;2023-08-17T17:11:46;29.86;60.40
67093;SHT31;54011;50.772;7.730;2023-08-17T17:14:11;29.37;61.99
67093;SHT31;54011;50.772;7.730;2023-08-17T17:16:37;29.44;62.22
67093;SHT31;54011;50.772;7.730;2023-08-17T17:19:03;29.16;62.89
67093;SHT31;54011;50.772;7.730;2023-08-17T17:21:31;29.95;61.17
67093;SHT31;54011;50.772;7.730;2023-08-17T17:23:57;30.04;60.65
67093;SHT31;54011;50.772;7.730;2023-08-17T17:26:22;29.95;61.27
67093;SHT31;54011;50.772;7.730;2023-08-17T17:28:50;30.37;60.83
67093;SHT31;54011;50.772;7.730;2023-08-17T17:31:15;30.48;61.15
67093;SHT31;54011;50.772;7.730;2023-08-17T17:33:41;30.87;58.96
67093;SHT31;54011;50.772;7.730;2023-08-17T17:36:06;30.94;58.81
67093;SHT31;54011;50.772;7.730;2023-08-17T17:38:32;30.48;60.23
67093;SHT31;54011;50.772;7.730;2023-08-17T17:40:57;30.43;58.91
67093;SHT31;54011;50.772;7.730;2023-08-17T17:43:23;29.93;61.76
67093;SHT31;54011;50.772;7.730;2023-08-17T17:45:49;29.38;62.77
67093;SHT31;54011;50.772;7.730;2023-08-17T17:48:18;28.95;63.92
67093;SHT31;54011;50.772;7.730;2023-08-17T17:50:44;28.80;63.58
67093;SHT31;54011;50.772;7.730;2023-08-17T17:53:10;29.00;63.96
67093;SHT31;54011;50.772;7.730;2023-08-17T17:55:36;28.96;63.21
67093;SHT31;54011;50.772;7.730;2023-08-17T17:58:02;28.96;63.52
67093;SHT31;54011;50.772;7.730;2023-08-17T18:00:28;28.56;64.72
67093;SHT31;54011;50.772;7.730;2023-08-17T18:03:10;28.83;64.29
67093;SHT31;54011;50.772;7.730;2023-08-17T18:05:37;28.53;64.67
67093;SHT31;54011;50.772;7.730;2023-08-17T18:08:03;28.35;66.12
67093;SHT31;54011;50.772;7.730;2023-08-17T18:10:29;28.02;65.70
67093;SHT31;54011;50.772;7.730;2023-08-17T18:12:54;28.08;65.54
67093;SHT31;54011;50.772;7.730;2023-08-17T18:15:20;28.07;65.26
67093;SHT31;54011;50.772;7.730;2023-08-17T18:17:46;27.70;66.73
67093;SHT31;54011;50.772;7.730;2023-08-17T18:20:11;27.98;66.78
67093;SHT31;54011;50.772;7.730;2023-08-17T18:22:38;28.05;66.57
67093;SHT31;54011;50.772;7.730;2023-08-17T18:25:04;28.02;67.29
67093;SHT31;54011;50.772;7.730;2023-08-17T18:27:30;27.70;68.04
67093;SHT31;54011;50.772;7.730;2023-08-17T18:29:56;27.64;68.89
67093;SHT31;54011;50.772;7.730;2023-08-17T18:32:21;27.19;70.05
67093;SHT31;54011;50.772;7.730;2023-08-17T18:34:47;27.06;69.73
67093;SHT31;54011;50.772;7.730;2023-08-17T18:37:12;27.23;69.12
67093;SHT31;54011;50.772;7.730;2023-08-17T18:39:39;27.05;68.86
67093;SHT31;54011;50.772;7.730;2023-08-17T18:42:04;26.69;70.86
67093;SHT31;54011;50.772;7.730;2023-08-17T18:44:30;26.94;70.34
67093;SHT31;54011;50.772;7.730;2023-08-17T18:46:55;26.79;70.41
67093;SHT31;54011;50.772;7.730;2023-08-17T18:49:21;26.87;70.31
67093;SHT31;54011;50.772;7.730;2023-08-17T18:51:46;26.78;70.16
67093;SHT31;54011;50.772;7.730;2023-08-17T18:54:12;26.54;70.48
67093;SHT31;54011;50.772;7.730;2023-08-17T18:56:37;26.62;71.17
67093;SHT31;54011;50.772;7.730;2023-08-17T18:59:03;26.62;70.57
67093;SHT31;54011;50.772;7.730;2023-08-17T19:01:28;26.41;70.86
67093;SHT31;54011;50.772;7.730;2023-08-17T19:03:54;26.37;71.05
67093;SHT31;54011;50.772;7.730;2023-08-17T19:06:19;25.92;71.91
67093;SHT31;54011;50.772;7.730;2023-08-17T19:08:45;26.14;71.64
67093;SHT31;54011;50.772;7.730;2023-08-17T19:11:10;26.27;71.60
67093;SHT31;54011;50.772;7.730;2023-08-17T19:13:36;26.00;72.09
67093;SHT31;54011;50.772;7.730;2023-08-17T19:16:02;25.96;72.75
67093;SHT31;54011;50.772;7.730;2023-08-17T19:18:28;25.97;72.87
67093;SHT31;54011;50.772;7.730;2023-08-17T19:20:53;26.00;72.30
67093;SHT31;54011;50.772;7.730;2023-08-17T19:23:19;25.90;72.24
67093;SHT31;54011;50.772;7.730;2023-08-17T19:25:45;25.38;72.99
67093;SHT31;54011;50.772;7.730;2023-08-17T19:28:10;25.25;73.50
67093;SHT31;54011;50.772;7.730;2023-08-17T19:30:36;25.46;73.29
67093;SHT31;54011;50.772;7.730;2023-08-17T19:33:02;25.53;72.95
67093;SHT31;54011;50.772;7.730;2023-08-17T19:35:29;25.51;73.08
67093;SHT31;54011;50.772;7.730;2023-08-17T19:37:55;25.52;73.04
67093;SHT31;54011;50.772;7.730;2023-08-17T19:40:21;25.78;72.56
67093;SHT31;54011;50.772;7.730;2023-08-17T19:42:48;25.55;73.10
67093;SHT31;54011;50.772;7.730;2023-08-17T19:45:14;25.49;73.12
67093;SHT31;54011;50.772;7.730;2023-08-17T19:47:41;25.46;73.18
67093;SHT31;54011;50.772;7.730;2023-08-17T19:50:07;25.43;73.36
67093;SHT31;54011;50.772;7.730;2023-08-17T19:52:35;25.24;73.60
67093;SHT31;54011;50.772;7.730;2023-08-17T19:55:06;25.38;73.55
67093;SHT31;54011;50.772;7.730;2023-08-17T19:57:42;25.32;73.79
67093;SHT31;54011;50.772;7.730;2023-08-17T20:00:08;25.27;73.48
67093;SHT31;54011;50.772;7.730;2023-08-17T20:02:38;25.15;73.83
67093;SHT31;54011;50.772;7.730;2023-08-17T20:05:04;25.18;73.62
67093;SHT31;54011;50.772;7.730;2023-08-17T20:07:31;25.18;73.61
67093;SHT31;54011;50.772;7.730;2023-08-17T20:09:57;25.11;73.94
67093;SHT31;54011;50.772;7.730;2023-08-17T20:12:25;24.94;74.68
67093;SHT31;54011;50.772;7.730;2023-08-17T20:14:50;24.92;74.67
67093;SHT31;54011;50.772;7.730;2023-08-17T20:17:16;24.84;75.65
67093;SHT31;54011;50.772;7.730;2023-08-17T20:19:41;24.92;74.74
67093;SHT31;54011;50.772;7.730;2023-08-17T20:22:07;24.98;74.65
67093;SHT31;54011;50.772;7.730;2023-08-17T20:24:33;24.87;74.60
67093;SHT31;54011;50.772;7.730;2023-08-17T20:31:06;24.71;75.42
67093;SHT31;54011;50.772;7.730;2023-08-17T20:33:32;24.48;75.82
67093;SHT31;54011;50.772;7.730;2023-08-17T20:35:57;24.60;75.94
67093;SHT31;54011;50.772;7.730;2023-08-17T20:38:24;24.44;76.10
67093;SHT31;54011;50.772;7.730;2023-08-17T20:40:50;24.49;76.03
67093;SHT31;54011;50.772;7.730;2023-08-17T20:43:16;24.46;75.98
67093;SHT31;54011;50.772;7.730;2023-08-17T20:45:42;24.61;75.27
67093;SHT31;54011;50.772;7.730;2023-08-17T20:48:08;24.79;75.03
67093;SHT31;54011;50.772;7.730;2023-08-17T20:50:38;24.81;74.48
67093;SHT31;54011;50.772;7.730;2023-08-17T20:53:05;24.33;75.96
67093;SHT31;54011;50.772;7.730;2023-08-17T20:55:38;23.94;77.30
67093;SHT31;54011;50.772;7.730;2023-08-17T20:58:06;24.12;76.99
67093;SHT31;54011;50.772;7.730;2023-08-17T21:00:32;24.16;76.44
67093;SHT31;54011;50.772;7.730;2023-08-17T21:03:05;24.33;76.17
67093;SHT31;54011;50.772;7.730;2023-08-17T21:05:31;24.29;76.12
67093;SHT31;54011;50.772;7.730;2023-08-17T21:07:58;24.13;76.55
67093;SHT31;54011;50.772;7.730;2023-08-17T21:10:26;24.22;76.05
67093;SHT31;54011;50.772;7.730;2023-08-17T21:12:52;24.32;75.94
67093;SHT31;54011;50.772;7.730;2023-08-17T21:15:19;24.35;75.78
67093;SHT31;54011;50.772;7.730;2023-08-17T21:17:46;24.18;76.46
67093;SHT31;54011;50.772;7.730;2023-08-17T21:20:13;24.01;76.83
67093;SHT31;54011;50.772;7.730;2023-08-17T21:22:46;24.19;76.08
67093;SHT31;54011;50.772;7.730;2023-08-17T21:25:18;24.05;76.47
67093;SHT31;54011;50.772;7.730;2023-08-17T21:27:44;23.81;77.31
67093;SHT31;54011;50.772;7.730;2023-08-17T21:30:10;23.62;77.87
67093;SHT31;54011;50.772;7.730;2023-08-17T21:32:36;23.47;78.11
67093;SHT31;54011;50.772;7.730;2023-08-17T21:35:01;23.53;78.01
67093;SHT31;54011;50.772;7.730;2023-08-17T21:37:28;23.70;77.33
67093;SHT31;54011;50.772;7.730;2023-08-17T21:39:54;23.58;77.56
67093;SHT31;54011;50.772;7.730;2023-08-17T21:42:20;23.70;77.68
67093;SHT31;54011;50.772;7.730;2023-08-17T21:44:48;23.78;77.11
67093;SHT31;54011;50.772;7.730;2023-08-17T21:47:17;23.67;77.47
67093;SHT31;54011;50.772;7.730;2023-08-17T21:49:48;23.70;77.23
67093;SHT31;54011;50.772;7.730;2023-08-17T21:52:15;23.49;77.97
67093;SHT31;54011;50.772;7.730;2023-08-17T21:54:42;23.34;78.59